Nancy, France

9:01 PM CEST on September 01, 2014 (GMT +0200)
Essey | Change Station
CLOSE
Current Station
Airport
Location: Nancy,
Elevation: 699 ft
Nearby Weather Stations

Elev 699 ft 48.69 °N, 6.22 °E | Updated 31 minutes ago

Clear
Clear
59 °F
Feels Like 59 °F
N
1
Wind Variable Wind from Variable

Today
High -- | Low -- °F
--% Chance of Precip.
Yesterday
High -- | Low -- °F
Precip. -- in
6:51 AM 8:17 PM
Waxing Crescent, 43% visible
Pressure 30.15 in
Visibility 6.2 miles
Clouds
Dew Point 52 °F
Humidity 77%
Rainfall 0.00 in
Snow Depth Not available.
UV Not available.
Pollen Not available.
Air Quality Not available.
Flu Activity Not available.
METAR LFSN 011830Z AUTO VRB01KT 9999 NSC 15/11 Q1021

More Conditions Fewer Conditions

Pressure 30.15 in
Visibility 6.2 miles
Clouds
Dew Point 52 °F
Humidity 77%
Rainfall 0.00 in
Snow Depth Not available.
UV Not available.
Pollen Not available.
Air Quality Not available.
Flu Activity Not available.
METAR LFSN 011830Z AUTO VRB01KT 9999 NSC 15/11 Q1021

More Conditions Fewer Conditions

10-Day Weather Forecast

Almanac

Astronomy

Sep. 01, 2014 Rise Set
Actual Time 6:51 AM CEST 8:17 PM CEST
Civil Twilight 6:19 AM CEST 8:50 PM CEST
Nautical Twilight 5:39 AM CEST 9:29 PM CEST
Astronomical Twilight 4:56 AM CEST 10:12 PM CEST
Moon 1:54 PM CEST 11:32 PM CEST
Length of Visible Light 14h 31m
Length of Day
13h 25m
Tomorrow will be 3m 28s shorter.
Waxing Crescent, 43% of the Moon is Illuminated
Today
Waxing Crescent
Sep 2
First Quarter
Sep 8
Full
Sep 15
Last Quarter
Sep 24
New

Today's Extremes

Country Highs Country Lows

Community

WunderPhotos

Upload Photos

1,749,367 photos uploaded!

WunderBlogs® & News

Nearby

Snow Depth

Not available.

Earthquake Activity

City Distance Mag. Time & Date
No recent earthquake activity has been reported nearby.
Minimum magnitude displayed is 2.5.

Coastal Water Temperatures

Place Temperature
No Stations Reporting

Nearby Weather Stations